sensor_id;sensor_type;location;lat;lon;timestamp;P1;durP1;ratioP1;P2;durP2;ratioP2
43883;SDS011;29544;52.018;5.810;2023-02-15T00:01:17;6.23;;;4.20;;
43883;SDS011;29544;52.018;5.810;2023-02-15T00:03:42;5.63;;;4.33;;
43883;SDS011;29544;52.018;5.810;2023-02-15T00:06:08;5.13;;;4.23;;
43883;SDS011;29544;52.018;5.810;2023-02-15T00:08:34;5.40;;;4.03;;
43883;SDS011;29544;52.018;5.810;2023-02-15T00:13:41;6.68;;;4.13;;
43883;SDS011;29544;52.018;5.810;2023-02-15T00:16:11;4.77;;;4.27;;
43883;SDS011;29544;52.018;5.810;2023-02-15T00:18:38;6.95;;;4.07;;
43883;SDS011;29544;52.018;5.810;2023-02-15T00:23:30;6.70;;;4.70;;
43883;SDS011;29544;52.018;5.810;2023-02-15T00:26:06;5.63;;;4.30;;
43883;SDS011;29544;52.018;5.810;2023-02-15T00:31:05;6.07;;;4.28;;
43883;SDS011;29544;52.018;5.810;2023-02-15T00:33:32;5.38;;;3.92;;
43883;SDS011;29544;52.018;5.810;2023-02-15T00:35:59;5.20;;;4.00;;
43883;SDS011;29544;52.018;5.810;2023-02-15T00:38:26;5.55;;;4.30;;
43883;SDS011;29544;52.018;5.810;2023-02-15T00:40:55;5.85;;;4.15;;
43883;SDS011;29544;52.018;5.810;2023-02-15T00:43:22;6.65;;;4.25;;
43883;SDS011;29544;52.018;5.810;2023-02-15T00:48:14;6.00;;;4.18;;
43883;SDS011;29544;52.018;5.810;2023-02-15T00:50:39;5.63;;;4.30;;
43883;SDS011;29544;52.018;5.810;2023-02-15T00:53:05;6.10;;;4.33;;
43883;SDS011;29544;52.018;5.810;2023-02-15T00:55:31;7.67;;;3.87;;
43883;SDS011;29544;52.018;5.810;2023-02-15T00:57:56;5.67;;;4.27;;
43883;SDS011;29544;52.018;5.810;2023-02-15T01:00:22;8.53;;;4.20;;
43883;SDS011;29544;52.018;5.810;2023-02-15T01:02:47;6.47;;;4.13;;
43883;SDS011;29544;52.018;5.810;2023-02-15T01:05:13;4.77;;;4.00;;
43883;SDS011;29544;52.018;5.810;2023-02-15T01:07:38;8.10;;;4.33;;
43883;SDS011;29544;52.018;5.810;2023-02-15T01:10:05;5.97;;;4.37;;
43883;SDS011;29544;52.018;5.810;2023-02-15T01:12:31;5.53;;;4.25;;
43883;SDS011;29544;52.018;5.810;2023-02-15T01:14:57;6.47;;;4.07;;
43883;SDS011;29544;52.018;5.810;2023-02-15T01:17:23;5.53;;;4.13;;
43883;SDS011;29544;52.018;5.810;2023-02-15T01:19:48;5.73;;;4.10;;
43883;SDS011;29544;52.018;5.810;2023-02-15T01:22:14;5.97;;;4.17;;
43883;SDS011;29544;52.018;5.810;2023-02-15T01:24:39;5.70;;;3.77;;
43883;SDS011;29544;52.018;5.810;2023-02-15T01:27:05;5.77;;;4.30;;
43883;SDS011;29544;52.018;5.810;2023-02-15T01:29:30;5.53;;;4.07;;
43883;SDS011;29544;52.018;5.810;2023-02-15T01:31:56;7.50;;;4.63;;
43883;SDS011;29544;52.018;5.810;2023-02-15T01:34:22;5.93;;;4.50;;
43883;SDS011;29544;52.018;5.810;2023-02-15T01:36:47;6.27;;;4.37;;
43883;SDS011;29544;52.018;5.810;2023-02-15T01:39:13;6.23;;;4.50;;
43883;SDS011;29544;52.018;5.810;2023-02-15T01:44:40;6.32;;;4.10;;
43883;SDS011;29544;52.018;5.810;2023-02-15T01:47:10;6.35;;;4.43;;
43883;SDS011;29544;52.018;5.810;2023-02-15T01:49:40;6.00;;;4.07;;
43883;SDS011;29544;52.018;5.810;2023-02-15T01:52:08;5.28;;;4.00;;
43883;SDS011;29544;52.018;5.810;2023-02-15T01:54:38;6.57;;;4.18;;
43883;SDS011;29544;52.018;5.810;2023-02-15T01:57:07;6.40;;;3.70;;
43883;SDS011;29544;52.018;5.810;2023-02-15T01:59:35;6.22;;;3.95;;
43883;SDS011;29544;52.018;5.810;2023-02-15T02:02:04;6.00;;;4.45;;
43883;SDS011;29544;52.018;5.810;2023-02-15T02:07:03;5.80;;;3.80;;
43883;SDS011;29544;52.018;5.810;2023-02-15T02:09:31;6.53;;;4.50;;
43883;SDS011;29544;52.018;5.810;2023-02-15T02:11:57;5.43;;;4.00;;
43883;SDS011;29544;52.018;5.810;2023-02-15T02:14:23;5.88;;;4.38;;
43883;SDS011;29544;52.018;5.810;2023-02-15T02:19:37;5.63;;;4.20;;
43883;SDS011;29544;52.018;5.810;2023-02-15T02:25:16;5.63;;;4.43;;
43883;SDS011;29544;52.018;5.810;2023-02-15T02:45:03;4.60;;;3.70;;
43883;SDS011;29544;52.018;5.810;2023-02-15T02:47:38;6.00;;;4.43;;
43883;SDS011;29544;52.018;5.810;2023-02-15T02:50:11;5.78;;;4.13;;
43883;SDS011;29544;52.018;5.810;2023-02-15T02:52:41;5.32;;;4.07;;
43883;SDS011;29544;52.018;5.810;2023-02-15T02:55:25;5.85;;;4.30;;
43883;SDS011;29544;52.018;5.810;2023-02-15T02:58:01;5.53;;;3.97;;
43883;SDS011;29544;52.018;5.810;2023-02-15T03:00:36;6.13;;;3.92;;
43883;SDS011;29544;52.018;5.810;2023-02-15T03:03:12;5.28;;;4.20;;
43883;SDS011;29544;52.018;5.810;2023-02-15T03:05:50;5.47;;;4.03;;
43883;SDS011;29544;52.018;5.810;2023-02-15T03:08:24;6.65;;;4.57;;
43883;SDS011;29544;52.018;5.810;2023-02-15T03:10:55;5.25;;;3.83;;
43883;SDS011;29544;52.018;5.810;2023-02-15T03:13:23;5.95;;;4.32;;
43883;SDS011;29544;52.018;5.810;2023-02-15T03:15:49;5.57;;;3.97;;
43883;SDS011;29544;52.018;5.810;2023-02-15T03:18:36;5.65;;;4.55;;
43883;SDS011;29544;52.018;5.810;2023-02-15T03:21:06;5.18;;;4.05;;
43883;SDS011;29544;52.018;5.810;2023-02-15T03:23:33;5.05;;;4.07;;
43883;SDS011;29544;52.018;5.810;2023-02-15T03:26:02;5.10;;;3.83;;
43883;SDS011;29544;52.018;5.810;2023-02-15T03:28:32;6.07;;;3.83;;
43883;SDS011;29544;52.018;5.810;2023-02-15T03:31:02;5.40;;;4.20;;
43883;SDS011;29544;52.018;5.810;2023-02-15T03:33:30;5.75;;;4.13;;
43883;SDS011;29544;52.018;5.810;2023-02-15T03:36:00;4.85;;;3.78;;
43883;SDS011;29544;52.018;5.810;2023-02-15T03:41:02;6.72;;;4.28;;
43883;SDS011;29544;52.018;5.810;2023-02-15T03:43:48;5.38;;;3.83;;
43883;SDS011;29544;52.018;5.810;2023-02-15T03:47:40;5.50;;;4.18;;
43883;SDS011;29544;52.018;5.810;2023-02-15T03:49:42;6.82;;;4.15;;
43883;SDS011;29544;52.018;5.810;2023-02-15T03:52:52;4.88;;;3.85;;
43883;SDS011;29544;52.018;5.810;2023-02-15T03:55:19;5.22;;;3.90;;
43883;SDS011;29544;52.018;5.810;2023-02-15T03:57:45;6.70;;;4.43;;
43883;SDS011;29544;52.018;5.810;2023-02-15T04:00:29;5.88;;;4.47;;
43883;SDS011;29544;52.018;5.810;2023-02-15T04:03:24;5.68;;;4.13;;
43883;SDS011;29544;52.018;5.810;2023-02-15T04:05:58;6.07;;;4.10;;
43883;SDS011;29544;52.018;5.810;2023-02-15T04:08:26;5.20;;;3.95;;
43883;SDS011;29544;52.018;5.810;2023-02-15T04:11:11;5.63;;;4.50;;
43883;SDS011;29544;52.018;5.810;2023-02-15T04:13:37;5.83;;;4.10;;
43883;SDS011;29544;52.018;5.810;2023-02-15T04:16:04;5.75;;;4.43;;
43883;SDS011;29544;52.018;5.810;2023-02-15T04:18:36;7.53;;;4.30;;
43883;SDS011;29544;52.018;5.810;2023-02-15T04:21:26;8.27;;;4.78;;
43883;SDS011;29544;52.018;5.810;2023-02-15T04:24:12;6.03;;;4.60;;
43883;SDS011;29544;52.018;5.810;2023-02-15T04:26:58;7.40;;;5.45;;
43883;SDS011;29544;52.018;5.810;2023-02-15T04:29:24;7.65;;;4.72;;
43883;SDS011;29544;52.018;5.810;2023-02-15T04:31:51;5.85;;;4.22;;
43883;SDS011;29544;52.018;5.810;2023-02-15T04:34:18;6.00;;;4.60;;
43883;SDS011;29544;52.018;5.810;2023-02-15T04:36:44;6.10;;;4.20;;
43883;SDS011;29544;52.018;5.810;2023-02-15T04:39:11;4.93;;;3.70;;
43883;SDS011;29544;52.018;5.810;2023-02-15T04:41:38;5.90;;;4.55;;
43883;SDS011;29544;52.018;5.810;2023-02-15T04:44:04;5.83;;;4.30;;
43883;SDS011;29544;52.018;5.810;2023-02-15T04:46:29;6.90;;;4.73;;
43883;SDS011;29544;52.018;5.810;2023-02-15T04:48:55;6.23;;;4.67;;
43883;SDS011;29544;52.018;5.810;2023-02-15T04:51:21;7.47;;;5.07;;
43883;SDS011;29544;52.018;5.810;2023-02-15T04:53:46;5.90;;;4.37;;
43883;SDS011;29544;52.018;5.810;2023-02-15T04:56:12;5.90;;;4.27;;
43883;SDS011;29544;52.018;5.810;2023-02-15T04:58:37;7.30;;;4.63;;
43883;SDS011;29544;52.018;5.810;2023-02-15T05:01:06;6.53;;;4.40;;
43883;SDS011;29544;52.018;5.810;2023-02-15T05:05:58;6.97;;;4.68;;
43883;SDS011;29544;52.018;5.810;2023-02-15T05:08:23;5.47;;;4.37;;
43883;SDS011;29544;52.018;5.810;2023-02-15T05:10:49;5.60;;;4.10;;
43883;SDS011;29544;52.018;5.810;2023-02-15T05:13:14;10.10;;;5.67;;
43883;SDS011;29544;52.018;5.810;2023-02-15T05:15:40;5.03;;;4.20;;
43883;SDS011;29544;52.018;5.810;2023-02-15T05:18:05;6.57;;;4.50;;
43883;SDS011;29544;52.018;5.810;2023-02-15T05:20:32;7.18;;;4.70;;
43883;SDS011;29544;52.018;5.810;2023-02-15T05:22:58;6.18;;;4.10;;
43883;SDS011;29544;52.018;5.810;2023-02-15T05:25:23;5.63;;;4.47;;
43883;SDS011;29544;52.018;5.810;2023-02-15T05:28:09;5.57;;;4.10;;
43883;SDS011;29544;52.018;5.810;2023-02-15T05:30:44;4.90;;;4.13;;
43883;SDS011;29544;52.018;5.810;2023-02-15T05:33:30;5.72;;;4.75;;
43883;SDS011;29544;52.018;5.810;2023-02-15T05:35:56;6.65;;;4.57;;
43883;SDS011;29544;52.018;5.810;2023-02-15T05:38:22;6.20;;;4.70;;
43883;SDS011;29544;52.018;5.810;2023-02-15T05:40:47;5.87;;;4.40;;
43883;SDS011;29544;52.018;5.810;2023-02-15T05:43:13;6.40;;;4.60;;
43883;SDS011;29544;52.018;5.810;2023-02-15T05:45:38;6.63;;;4.70;;
43883;SDS011;29544;52.018;5.810;2023-02-15T05:48:04;6.77;;;4.97;;
43883;SDS011;29544;52.018;5.810;2023-02-15T05:50:29;8.03;;;4.80;;
43883;SDS011;29544;52.018;5.810;2023-02-15T05:52:55;7.40;;;4.83;;
43883;SDS011;29544;52.018;5.810;2023-02-15T05:55:21;6.75;;;4.80;;
43883;SDS011;29544;52.018;5.810;2023-02-15T05:57:48;5.93;;;4.37;;
43883;SDS011;29544;52.018;5.810;2023-02-15T06:00:13;7.30;;;4.40;;
43883;SDS011;29544;52.018;5.810;2023-02-15T06:02:39;7.13;;;4.70;;
43883;SDS011;29544;52.018;5.810;2023-02-15T06:05:05;6.17;;;4.20;;
43883;SDS011;29544;52.018;5.810;2023-02-15T06:07:32;7.63;;;5.70;;
43883;SDS011;29544;52.018;5.810;2023-02-15T06:09:57;5.73;;;4.50;;
43883;SDS011;29544;52.018;5.810;2023-02-15T06:12:23;7.03;;;5.00;;
43883;SDS011;29544;52.018;5.810;2023-02-15T06:14:48;6.70;;;4.40;;
43883;SDS011;29544;52.018;5.810;2023-02-15T06:17:14;7.07;;;4.60;;
43883;SDS011;29544;52.018;5.810;2023-02-15T06:19:41;7.20;;;4.85;;
43883;SDS011;29544;52.018;5.810;2023-02-15T06:22:07;6.67;;;4.80;;
43883;SDS011;29544;52.018;5.810;2023-02-15T06:24:33;6.27;;;4.87;;
43883;SDS011;29544;52.018;5.810;2023-02-15T06:26:58;7.47;;;5.27;;
43883;SDS011;29544;52.018;5.810;2023-02-15T06:29:24;7.93;;;5.23;;
43883;SDS011;29544;52.018;5.810;2023-02-15T06:31:49;5.63;;;4.73;;
43883;SDS011;29544;52.018;5.810;2023-02-15T06:34:15;6.50;;;4.63;;
43883;SDS011;29544;52.018;5.810;2023-02-15T06:36:40;6.57;;;4.70;;
43883;SDS011;29544;52.018;5.810;2023-02-15T06:39:06;6.77;;;4.67;;
43883;SDS011;29544;52.018;5.810;2023-02-15T06:41:32;7.17;;;4.93;;
43883;SDS011;29544;52.018;5.810;2023-02-15T06:43:57;6.67;;;4.53;;
43883;SDS011;29544;52.018;5.810;2023-02-15T06:46:23;6.37;;;5.00;;
43883;SDS011;29544;52.018;5.810;2023-02-15T06:48:48;7.50;;;5.10;;
43883;SDS011;29544;52.018;5.810;2023-02-15T06:51:14;6.13;;;4.67;;
43883;SDS011;29544;52.018;5.810;2023-02-15T06:53:39;7.47;;;5.23;;
43883;SDS011;29544;52.018;5.810;2023-02-15T06:56:08;5.97;;;4.75;;
43883;SDS011;29544;52.018;5.810;2023-02-15T06:58:35;5.43;;;4.30;;
43883;SDS011;29544;52.018;5.810;2023-02-15T07:01:01;7.57;;;5.53;;
43883;SDS011;29544;52.018;5.810;2023-02-15T07:03:28;6.20;;;4.85;;
43883;SDS011;29544;52.018;5.810;2023-02-15T07:05:54;6.40;;;4.70;;
43883;SDS011;29544;52.018;5.810;2023-02-15T07:08:20;7.53;;;5.10;;
43883;SDS011;29544;52.018;5.810;2023-02-15T07:10:46;6.80;;;5.13;;
43883;SDS011;29544;52.018;5.810;2023-02-15T07:13:13;7.28;;;5.28;;
43883;SDS011;29544;52.018;5.810;2023-02-15T07:15:39;8.37;;;5.87;;
43883;SDS011;29544;52.018;5.810;2023-02-15T07:18:04;8.40;;;4.50;;
43883;SDS011;29544;52.018;5.810;2023-02-15T07:20:30;7.97;;;4.87;;
43883;SDS011;29544;52.018;5.810;2023-02-15T07:22:56;7.03;;;5.27;;
43883;SDS011;29544;52.018;5.810;2023-02-15T07:25:21;7.57;;;5.13;;
43883;SDS011;29544;52.018;5.810;2023-02-15T07:27:47;6.73;;;5.37;;
43883;SDS011;29544;52.018;5.810;2023-02-15T07:30:14;7.00;;;5.73;;
43883;SDS011;29544;52.018;5.810;2023-02-15T07:32:42;8.57;;;5.22;;
43883;SDS011;29544;52.018;5.810;2023-02-15T07:35:26;7.13;;;4.75;;
43883;SDS011;29544;52.018;5.810;2023-02-15T07:37:52;8.10;;;6.07;;
43883;SDS011;29544;52.018;5.810;2023-02-15T07:40:18;7.00;;;5.47;;
43883;SDS011;29544;52.018;5.810;2023-02-15T07:42:43;10.67;;;5.60;;
43883;SDS011;29544;52.018;5.810;2023-02-15T07:45:09;7.87;;;5.63;;
43883;SDS011;29544;52.018;5.810;2023-02-15T07:47:35;9.00;;;6.25;;
43883;SDS011;29544;52.018;5.810;2023-02-15T07:50:00;7.80;;;5.63;;
43883;SDS011;29544;52.018;5.810;2023-02-15T07:52:26;7.03;;;5.30;;
43883;SDS011;29544;52.018;5.810;2023-02-15T07:54:52;10.43;;;5.70;;
43883;SDS011;29544;52.018;5.810;2023-02-15T07:57:18;7.87;;;5.57;;
43883;SDS011;29544;52.018;5.810;2023-02-15T07:59:43;8.43;;;5.63;;
43883;SDS011;29544;52.018;5.810;2023-02-15T08:02:09;6.90;;;5.50;;
43883;SDS011;29544;52.018;5.810;2023-02-15T08:07:01;6.88;;;5.20;;
43883;SDS011;29544;52.018;5.810;2023-02-15T08:09:26;7.03;;;5.27;;
43883;SDS011;29544;52.018;5.810;2023-02-15T08:11:51;6.57;;;5.37;;
43883;SDS011;29544;52.018;5.810;2023-02-15T08:14:18;7.90;;;5.60;;
43883;SDS011;29544;52.018;5.810;2023-02-15T08:16:49;8.00;;;5.05;;
43883;SDS011;29544;52.018;5.810;2023-02-15T08:21:45;7.90;;;5.32;;
43883;SDS011;29544;52.018;5.810;2023-02-15T08:24:12;7.10;;;5.03;;
43883;SDS011;29544;52.018;5.810;2023-02-15T08:26:39;7.63;;;5.20;;
43883;SDS011;29544;52.018;5.810;2023-02-15T08:29:05;8.43;;;5.00;;
43883;SDS011;29544;52.018;5.810;2023-02-15T08:31:31;7.68;;;5.28;;
43883;SDS011;29544;52.018;5.810;2023-02-15T08:33:58;7.72;;;5.07;;
43883;SDS011;29544;52.018;5.810;2023-02-15T08:36:24;6.07;;;5.20;;
43883;SDS011;29544;52.018;5.810;2023-02-15T08:38:52;10.73;;;5.55;;
43883;SDS011;29544;52.018;5.810;2023-02-15T08:41:18;5.80;;;5.07;;
43883;SDS011;29544;52.018;5.810;2023-02-15T08:43:46;8.05;;;5.22;;
43883;SDS011;29544;52.018;5.810;2023-02-15T08:46:14;7.25;;;5.53;;
43883;SDS011;29544;52.018;5.810;2023-02-15T08:48:40;8.27;;;5.47;;
43883;SDS011;29544;52.018;5.810;2023-02-15T08:51:10;6.78;;;5.05;;
43883;SDS011;29544;52.018;5.810;2023-02-15T08:53:38;6.55;;;5.30;;
43883;SDS011;29544;52.018;5.810;2023-02-15T08:56:06;9.05;;;5.85;;
43883;SDS011;29544;52.018;5.810;2023-02-15T08:58:32;7.15;;;5.28;;
43883;SDS011;29544;52.018;5.810;2023-02-15T09:00:58;7.00;;;5.35;;
43883;SDS011;29544;52.018;5.810;2023-02-15T09:03:24;7.20;;;5.20;;
43883;SDS011;29544;52.018;5.810;2023-02-15T09:05:49;8.03;;;5.43;;
43883;SDS011;29544;52.018;5.810;2023-02-15T09:08:15;6.75;;;5.15;;
43883;SDS011;29544;52.018;5.810;2023-02-15T09:10:41;8.00;;;6.00;;
43883;SDS011;29544;52.018;5.810;2023-02-15T09:13:07;8.17;;;5.40;;
43883;SDS011;29544;52.018;5.810;2023-02-15T09:15:32;7.93;;;5.60;;
43883;SDS011;29544;52.018;5.810;2023-02-15T09:17:58;7.50;;;5.60;;
43883;SDS011;29544;52.018;5.810;2023-02-15T09:20:26;7.20;;;5.45;;
43883;SDS011;29544;52.018;5.810;2023-02-15T09:25:19;6.78;;;5.32;;
43883;SDS011;29544;52.018;5.810;2023-02-15T09:27:45;7.68;;;5.50;;
43883;SDS011;29544;52.018;5.810;2023-02-15T09:30:10;6.97;;;5.57;;
43883;SDS011;29544;52.018;5.810;2023-02-15T09:32:36;6.50;;;4.75;;
43883;SDS011;29544;52.018;5.810;2023-02-15T09:35:02;6.77;;;5.40;;
43883;SDS011;29544;52.018;5.810;2023-02-15T09:39:57;8.98;;;5.40;;
43883;SDS011;29544;52.018;5.810;2023-02-15T09:48:38;7.93;;;5.35;;
43883;SDS011;29544;52.018;5.810;2023-02-15T09:51:03;7.47;;;5.32;;
43883;SDS011;29544;52.018;5.810;2023-02-15T09:53:50;8.70;;;5.53;;
43883;SDS011;29544;52.018;5.810;2023-02-15T09:56:29;8.43;;;6.20;;
43883;SDS011;29544;52.018;5.810;2023-02-15T10:09:55;6.90;;;5.40;;
43883;SDS011;29544;52.018;5.810;2023-02-15T10:23:47;6.70;;;5.10;;
43883;SDS011;29544;52.018;5.810;2023-02-15T10:29:37;8.40;;;6.03;;
43883;SDS011;29544;52.018;5.810;2023-02-15T10:40:37;8.23;;;5.90;;
43883;SDS011;29544;52.018;5.810;2023-02-15T10:51:51;8.05;;;5.63;;
43883;SDS011;29544;52.018;5.810;2023-02-15T10:59:47;9.68;;;6.22;;
43883;SDS011;29544;52.018;5.810;2023-02-15T11:02:45;8.57;;;5.82;;
43883;SDS011;29544;52.018;5.810;2023-02-15T11:06:12;10.27;;;6.10;;
43883;SDS011;29544;52.018;5.810;2023-02-15T11:08:22;8.50;;;6.45;;
43883;SDS011;29544;52.018;5.810;2023-02-15T11:10:51;8.55;;;5.93;;
43883;SDS011;29544;52.018;5.810;2023-02-15T11:13:22;8.60;;;6.20;;
43883;SDS011;29544;52.018;5.810;2023-02-15T11:15:53;7.40;;;5.72;;
43883;SDS011;29544;52.018;5.810;2023-02-15T11:21:11;8.82;;;5.57;;
43883;SDS011;29544;52.018;5.810;2023-02-15T11:23:45;9.52;;;6.28;;
43883;SDS011;29544;52.018;5.810;2023-02-15T11:26:13;7.28;;;5.28;;
43883;SDS011;29544;52.018;5.810;2023-02-15T11:28:45;12.27;;;6.50;;
43883;SDS011;29544;52.018;5.810;2023-02-15T11:31:24;8.65;;;5.57;;
43883;SDS011;29544;52.018;5.810;2023-02-15T11:33:56;7.07;;;5.65;;
43883;SDS011;29544;52.018;5.810;2023-02-15T11:36:27;7.88;;;5.28;;
43883;SDS011;29544;52.018;5.810;2023-02-15T11:39:02;8.43;;;6.03;;
43883;SDS011;29544;52.018;5.810;2023-02-15T11:41:34;7.85;;;6.05;;
43883;SDS011;29544;52.018;5.810;2023-02-15T11:44:06;10.93;;;6.15;;
43883;SDS011;29544;52.018;5.810;2023-02-15T11:46:47;7.97;;;6.05;;
43883;SDS011;29544;52.018;5.810;2023-02-15T11:51:56;7.85;;;5.90;;
43883;SDS011;29544;52.018;5.810;2023-02-15T11:54:26;8.07;;;5.38;;
43883;SDS011;29544;52.018;5.810;2023-02-15T11:56:59;7.28;;;5.47;;
43883;SDS011;29544;52.018;5.810;2023-02-15T11:59:32;8.90;;;6.55;;
43883;SDS011;29544;52.018;5.810;2023-02-15T12:02:01;7.40;;;6.13;;
43883;SDS011;29544;52.018;5.810;2023-02-15T12:04:29;8.82;;;5.38;;
43883;SDS011;29544;52.018;5.810;2023-02-15T12:09:59;7.72;;;5.55;;
43883;SDS011;29544;52.018;5.810;2023-02-15T12:12:38;8.77;;;6.25;;
43883;SDS011;29544;52.018;5.810;2023-02-15T12:15:05;7.87;;;6.07;;
43883;SDS011;29544;52.018;5.810;2023-02-15T12:17:37;11.23;;;5.80;;
43883;SDS011;29544;52.018;5.810;2023-02-15T12:22:41;7.82;;;5.57;;
43883;SDS011;29544;52.018;5.810;2023-02-15T12:25:23;9.10;;;5.72;;
43883;SDS011;29544;52.018;5.810;2023-02-15T12:27:51;9.75;;;6.30;;
43883;SDS011;29544;52.018;5.810;2023-02-15T12:30:30;7.60;;;5.43;;
43883;SDS011;29544;52.018;5.810;2023-02-15T12:33:15;6.85;;;5.32;;
43883;SDS011;29544;52.018;5.810;2023-02-15T12:35:50;8.40;;;6.05;;
43883;SDS011;29544;52.018;5.810;2023-02-15T12:40:56;9.48;;;6.43;;
43883;SDS011;29544;52.018;5.810;2023-02-15T12:43:29;8.75;;;6.00;;
43883;SDS011;29544;52.018;5.810;2023-02-15T12:49:04;8.60;;;5.68;;
43883;SDS011;29544;52.018;5.810;2023-02-15T12:51:43;11.63;;;6.80;;
43883;SDS011;29544;52.018;5.810;2023-02-15T12:59:59;8.10;;;5.22;;
43883;SDS011;29544;52.018;5.810;2023-02-15T13:02:33;8.27;;;5.97;;
43883;SDS011;29544;52.018;5.810;2023-02-15T13:07:38;7.53;;;5.57;;
43883;SDS011;29544;52.018;5.810;2023-02-15T13:10:18;13.40;;;6.88;;
43883;SDS011;29544;52.018;5.810;2023-02-15T13:12:59;10.32;;;6.50;;
43883;SDS011;29544;52.018;5.810;2023-02-15T13:15:32;10.90;;;6.90;;
43883;SDS011;29544;52.018;5.810;2023-02-15T13:18:01;8.95;;;5.65;;
43883;SDS011;29544;52.018;5.810;2023-02-15T13:20:29;9.73;;;6.00;;
43883;SDS011;29544;52.018;5.810;2023-02-15T13:23:01;7.50;;;5.82;;
43883;SDS011;29544;52.018;5.810;2023-02-15T13:25:31;8.70;;;6.13;;
43883;SDS011;29544;52.018;5.810;2023-02-15T13:28:05;12.15;;;6.68;;
43883;SDS011;29544;52.018;5.810;2023-02-15T13:30:36;6.93;;;5.30;;
43883;SDS011;29544;52.018;5.810;2023-02-15T13:33:17;8.50;;;6.00;;
43883;SDS011;29544;52.018;5.810;2023-02-15T13:41:27;8.10;;;5.93;;
43883;SDS011;29544;52.018;5.810;2023-02-15T13:47:27;10.88;;;6.18;;
43883;SDS011;29544;52.018;5.810;2023-02-15T13:55:40;8.13;;;6.47;;
43883;SDS011;29544;52.018;5.810;2023-02-15T14:00:52;8.13;;;5.57;;
43883;SDS011;29544;52.018;5.810;2023-02-15T14:03:39;10.35;;;6.82;;
43883;SDS011;29544;52.018;5.810;2023-02-15T14:06:42;12.65;;;7.53;;
43883;SDS011;29544;52.018;5.810;2023-02-15T14:12:29;15.45;;;8.57;;
43883;SDS011;29544;52.018;5.810;2023-02-15T14:15:08;12.77;;;8.38;;
43883;SDS011;29544;52.018;5.810;2023-02-15T14:17:58;13.90;;;9.20;;
43883;SDS011;29544;52.018;5.810;2023-02-15T14:20:27;11.82;;;8.15;;
43883;SDS011;29544;52.018;5.810;2023-02-15T14:25:48;12.40;;;8.68;;
43883;SDS011;29544;52.018;5.810;2023-02-15T14:31:12;15.63;;;9.45;;
43883;SDS011;29544;52.018;5.810;2023-02-15T14:33:40;13.43;;;8.55;;
43883;SDS011;29544;52.018;5.810;2023-02-15T14:36:13;13.63;;;9.02;;
43883;SDS011;29544;52.018;5.810;2023-02-15T14:41:54;14.45;;;9.93;;
43883;SDS011;29544;52.018;5.810;2023-02-15T14:44:30;12.70;;;8.38;;
43883;SDS011;29544;52.018;5.810;2023-02-15T14:49:39;9.68;;;7.38;;
43883;SDS011;29544;52.018;5.810;2023-02-15T14:59:46;10.90;;;7.45;;
43883;SDS011;29544;52.018;5.810;2023-02-15T15:05:10;9.52;;;7.03;;
43883;SDS011;29544;52.018;5.810;2023-02-15T15:07:44;11.15;;;7.28;;
43883;SDS011;29544;52.018;5.810;2023-02-15T15:12:46;11.10;;;7.20;;
43883;SDS011;29544;52.018;5.810;2023-02-15T15:15:13;12.75;;;7.15;;
43883;SDS011;29544;52.018;5.810;2023-02-15T15:20:48;10.80;;;7.60;;
43883;SDS011;29544;52.018;5.810;2023-02-15T15:31:04;12.27;;;8.13;;
43883;SDS011;29544;52.018;5.810;2023-02-15T15:33:44;10.90;;;7.30;;
43883;SDS011;29544;52.018;5.810;2023-02-15T15:39:39;9.88;;;7.20;;
43883;SDS011;29544;52.018;5.810;2023-02-15T15:42:43;10.63;;;7.18;;
43883;SDS011;29544;52.018;5.810;2023-02-15T15:51:14;10.18;;;6.85;;
43883;SDS011;29544;52.018;5.810;2023-02-15T15:53:45;10.35;;;6.95;;
43883;SDS011;29544;52.018;5.810;2023-02-15T15:56:16;11.38;;;7.80;;
43883;SDS011;29544;52.018;5.810;2023-02-15T15:58:56;10.57;;;6.90;;
43883;SDS011;29544;52.018;5.810;2023-02-15T16:01:29;10.23;;;6.82;;
43883;SDS011;29544;52.018;5.810;2023-02-15T16:03:59;9.25;;;6.60;;
43883;SDS011;29544;52.018;5.810;2023-02-15T16:06:30;10.27;;;7.37;;
43883;SDS011;29544;52.018;5.810;2023-02-15T16:09:09;11.60;;;7.25;;
43883;SDS011;29544;52.018;5.810;2023-02-15T16:11:42;12.35;;;7.75;;
43883;SDS011;29544;52.018;5.810;2023-02-15T16:14:12;9.02;;;6.55;;
43883;SDS011;29544;52.018;5.810;2023-02-15T16:16:40;11.07;;;6.78;;
43883;SDS011;29544;52.018;5.810;2023-02-15T16:19:18;10.40;;;6.72;;
43883;SDS011;29544;52.018;5.810;2023-02-15T16:21:47;10.23;;;7.55;;
43883;SDS011;29544;52.018;5.810;2023-02-15T16:24:21;10.75;;;7.10;;
43883;SDS011;29544;52.018;5.810;2023-02-15T16:29:43;10.45;;;6.50;;
43883;SDS011;29544;52.018;5.810;2023-02-15T16:32:21;8.63;;;6.67;;
43883;SDS011;29544;52.018;5.810;2023-02-15T16:34:56;10.35;;;6.45;;
43883;SDS011;29544;52.018;5.810;2023-02-15T16:37:35;8.68;;;6.60;;
43883;SDS011;29544;52.018;5.810;2023-02-15T16:40:01;9.23;;;6.25;;
43883;SDS011;29544;52.018;5.810;2023-02-15T16:42:27;10.18;;;7.25;;
43883;SDS011;29544;52.018;5.810;2023-02-15T16:47:34;9.35;;;6.68;;
43883;SDS011;29544;52.018;5.810;2023-02-15T16:50:06;10.57;;;6.90;;
43883;SDS011;29544;52.018;5.810;2023-02-15T16:52:46;8.75;;;6.45;;
43883;SDS011;29544;52.018;5.810;2023-02-15T16:55:22;8.90;;;6.27;;
43883;SDS011;29544;52.018;5.810;2023-02-15T16:57:57;8.27;;;5.82;;
43883;SDS011;29544;52.018;5.810;2023-02-15T17:00:28;9.70;;;6.80;;
43883;SDS011;29544;52.018;5.810;2023-02-15T17:03:04;8.00;;;5.93;;
43883;SDS011;29544;52.018;5.810;2023-02-15T17:05:45;8.15;;;6.28;;
43883;SDS011;29544;52.018;5.810;2023-02-15T17:08:25;9.30;;;5.90;;
43883;SDS011;29544;52.018;5.810;2023-02-15T17:18:57;11.07;;;7.00;;
43883;SDS011;29544;52.018;5.810;2023-02-15T17:21:45;12.57;;;7.20;;
43883;SDS011;29544;52.018;5.810;2023-02-15T17:24:30;11.02;;;7.55;;
43883;SDS011;29544;52.018;5.810;2023-02-15T17:27:03;11.43;;;7.30;;
43883;SDS011;29544;52.018;5.810;2023-02-15T17:29:40;12.57;;;7.40;;
43883;SDS011;29544;52.018;5.810;2023-02-15T17:32:14;10.35;;;6.93;;
43883;SDS011;29544;52.018;5.810;2023-02-15T17:34:48;10.55;;;6.75;;
43883;SDS011;29544;52.018;5.810;2023-02-15T17:40:05;10.70;;;6.43;;
43883;SDS011;29544;52.018;5.810;2023-02-15T17:42:49;10.98;;;6.95;;
43883;SDS011;29544;52.018;5.810;2023-02-15T17:45:15;7.30;;;6.47;;
43883;SDS011;29544;52.018;5.810;2023-02-15T17:47:41;10.35;;;6.30;;
43883;SDS011;29544;52.018;5.810;2023-02-15T17:50:10;10.55;;;6.75;;
43883;SDS011;29544;52.018;5.810;2023-02-15T17:52:45;9.55;;;6.13;;
43883;SDS011;29544;52.018;5.810;2023-02-15T17:55:12;10.95;;;6.97;;
43883;SDS011;29544;52.018;5.810;2023-02-15T17:57:58;9.82;;;7.00;;
43883;SDS011;29544;52.018;5.810;2023-02-15T18:00:24;20.65;;;10.00;;
43883;SDS011;29544;52.018;5.810;2023-02-15T18:03:11;22.65;;;12.13;;
43883;SDS011;29544;52.018;5.810;2023-02-15T18:05:56;25.90;;;14.52;;
43883;SDS011;29544;52.018;5.810;2023-02-15T18:08:41;23.70;;;13.25;;
43883;SDS011;29544;52.018;5.810;2023-02-15T18:11:26;26.45;;;14.35;;
43883;SDS011;29544;52.018;5.810;2023-02-15T18:14:04;24.83;;;12.73;;
43883;SDS011;29544;52.018;5.810;2023-02-15T18:16:32;26.35;;;14.15;;
43883;SDS011;29544;52.018;5.810;2023-02-15T18:19:04;25.98;;;14.02;;
43883;SDS011;29544;52.018;5.810;2023-02-15T18:21:34;23.23;;;12.27;;
43883;SDS011;29544;52.018;5.810;2023-02-15T18:23:59;33.97;;;15.23;;
43883;SDS011;29544;52.018;5.810;2023-02-15T18:26:26;30.00;;;15.52;;
43883;SDS011;29544;52.018;5.810;2023-02-15T18:28:52;31.30;;;16.67;;
43883;SDS011;29544;52.018;5.810;2023-02-15T18:31:18;30.50;;;16.43;;
43883;SDS011;29544;52.018;5.810;2023-02-15T18:34:03;31.15;;;16.30;;
43883;SDS011;29544;52.018;5.810;2023-02-15T18:36:31;32.00;;;16.17;;
43883;SDS011;29544;52.018;5.810;2023-02-15T18:39:01;28.77;;;16.25;;